Portada
METAR-TAF:

METAR-TAF

Aeroports :

N'Djamena, Txad

latitud: 12-08N, longitud: 015-02E, altitud: 295 m

Observació

L'informe es va fer fa 1 hora i 19 minuts, a les 16:00 UTC
Vent 11 kt del Nord/Nord-Est
Temperatura 33°C
Humitat 10%
Pressió 1012 hPa
Visibilitat: 8000 m

METAR: FTTJ 211600Z 02011KT 8000 NSC 33/M03 Q1012 NOSIG

Hora: 18:19 (17:19 UTC)

Pronòstic

L'informe es va fer fa 6 hores i 19 minuts, a les 11:00 UTC
Pronòstic vàlid del 21 a les 12 UTC al 22 a les 18 UTC
Vent 6 kt del Nord/Nord-Est amb ràfegues de 16 kt
Visibilitat: 5000 m
torb alta de pols
Evolucionant progressivament
l' 21 a les 16 UTC al 22 a les 07 UTC
Visibilitat: 3000 m
Pols estès

TAF: FTTJ 211100Z 2112/2218 02006G16KT 5000 BLDU NSC BECMG 2116/2207 3000 DU

Observacions i pronòstics meteorològics de més de 4000 aeroports (METAR i TAF).

Les estacions disponibles són els punts grocs i vermells al mapa.

Posi el ratolí al punt desitjat per veure el nom de l'estació.

Feu clic per veure les observacions i els pronòstics meteorològics.

Per canviar el mapa: feu clic els botons verds amb una creu de color negre per apropar; al botó verd amb un guió per allunyar la imatge; o en les fletxes verdes per a mapes adjacents.


METAR-TAF: